Time;durP1;ratioP1;P1;durP2;ratioP2;P2;SDS_P1;SDS_P2;PMS_P1;PMS_P2;Temp;Humidity;BMP_temperature;BMP_pressure;BME280_temperature;BME280_humidity;BME280_pressure;Samples;Min_cycle;Max_cycle;Signal;HPM_P1;HPM_P2
2021/07/09 00:01:48;;;;;;;4.72;2.83;;;;;;;16.93;80.63;101882.28;4848272;29;20041;-82
2021/07/09 00:04:15;;;;;;;3.58;2.70;;;;;;;17.22;80.67;101918.97;4848941;29;20019;-83
2021/07/09 00:06:42;;;;;;;5.80;2.75;;;;;;;16.94;80.65;101895.66;4848137;29;20042;-82
2021/07/09 00:09:09;;;;;;;2.80;2.50;;;;;;;16.91;80.74;101887.94;4847555;29;20041;-83
2021/07/09 00:11:38;;;;;;;4.03;2.53;;;;;;;17.00;80.74;101891.25;5010724;24;20044;-82
2021/07/09 00:14:08;;;;;;;4.70;2.70;;;;;;;17.16;80.52;101917.13;4848799;29;20019;-83
2021/07/09 00:16:34;;;;;;;4.57;2.90;;;;;;;16.98;80.37;101890.63;4848693;29;20050;-83
2021/07/09 00:19:03;;;;;;;4.20;2.78;;;;;;;16.93;80.83;101890.44;4847546;29;20014;-82
2021/07/09 00:21:32;;;;;;;4.22;2.85;;;;;;;16.84;80.86;101874.34;4847689;29;20026;-82
2021/07/09 00:24:01;;;;;;;4.13;2.85;;;;;;;17.90;80.96;102049.13;4847515;29;20038;-82
2021/07/09 00:26:28;;;;;;;7.13;3.60;;;;;;;17.24;81.09;101947.63;4845459;29;20011;-82
2021/07/09 00:28:57;;;;;;;7.50;3.08;;;;;;;17.05;81.09;101908.59;4852062;29;20026;-82
2021/07/09 00:31:24;;;;;;;3.80;2.72;;;;;;;16.99;81.40;101900.47;4854231;29;20021;-82
2021/07/09 00:33:53;;;;;;;7.28;3.47;;;;;;;16.94;81.39;101902.97;4845003;29;20090;-82
2021/07/09 00:36:19;;;;;;;6.20;3.10;;;;;;;16.99;81.43;101916.78;4846386;29;20026;-82
2021/07/09 00:38:45;;;;;;;4.97;3.20;;;;;;;16.67;81.50;101873.13;4848970;29;20021;-84
2021/07/09 00:41:11;;;;;;;5.85;2.90;;;;;;;16.92;81.33;101911.38;4877331;24;20060;-83
2021/07/09 00:43:37;;;;;;;4.20;2.90;;;;;;;16.62;81.38;101873.78;4830360;29;20031;-82
2021/07/09 00:46:03;;;;;;;3.50;2.97;;;;;;;16.70;81.79;101891.72;4902149;24;20070;-82
2021/07/09 00:51:08;;;;;;;7.47;3.50;;;;;;;16.48;81.91;101901.19;4943253;24;20074;-82
2021/07/09 00:53:34;;;;;;;5.30;3.65;;;;;;;16.67;81.79;101920.16;4828633;29;20054;-82
2021/07/09 00:56:01;;;;;;;6.22;4.05;;;;;;;17.61;81.57;102064.91;4827371;29;20462;-81
2021/07/09 00:58:28;;;;;;;6.95;4.05;;;;;;;17.30;81.22;102000.34;4827890;29;20350;-82
2021/07/09 01:00:55;;;;;;;8.82;3.90;;;;;;;16.54;81.27;101882.16;4832274;29;20014;-82
2021/07/09 01:03:21;;;;;;;7.47;4.20;;;;;;;17.24;80.88;102001.19;4842533;29;20026;-82
2021/07/09 01:05:49;;;;;;;7.70;4.03;;;;;;;17.08;81.21;101972.56;4846667;29;20067;-83
2021/07/09 01:08:18;;;;;;;9.15;3.83;;;;;;;17.70;81.25;102055.44;4832132;29;20048;-82
2021/07/09 01:10:46;;;;;;;6.47;3.80;;;;;;;16.82;81.29;101925.41;4828412;29;20050;-81
2021/07/09 01:13:13;;;;;;;9.60;3.97;;;;;;;16.95;81.31;101948.16;4828553;29;20022;-82
2021/07/09 01:15:39;;;;;;;5.65;3.95;;;;;;;17.10;81.05;101984.09;4829489;29;20015;-82
2021/07/09 01:18:05;;;;;;;6.28;3.92;;;;;;;16.75;81.47;101918.28;4827813;29;20066;-81
2021/07/09 01:20:31;;;;;;;11.98;3.83;;;;;;;16.99;81.72;101972.00;4847017;29;20018;-82
2021/07/09 01:22:57;;;;;;;7.07;4.13;;;;;;;16.99;81.63;101965.72;4846146;29;20014;-82
2021/07/09 01:25:29;;;;;;;11.07;4.07;;;;;;;17.54;81.77;102051.31;4834706;29;20054;-82
2021/07/09 01:28:00;;;;;;;4.22;3.70;;;;;;;16.38;81.56;101883.44;4827359;29;20031;-82
2021/07/09 01:30:29;;;;;;;7.38;3.90;;;;;;;17.46;82.15;102058.91;4827196;29;20026;-81
2021/07/09 01:33:00;;;;;;;6.25;3.83;;;;;;;16.73;82.38;101939.41;4828316;29;20026;-82
2021/07/09 01:35:30;;;;;;;8.30;3.90;;;;;;;16.27;82.55;101881.38;4812790;29;20022;-82
2021/07/09 01:38:01;;;;;;;4.20;3.80;;;;;;;17.37;82.80;102053.69;4828303;29;20046;-82
2021/07/09 01:40:29;;;;;;;5.75;4.00;;;;;;;16.26;82.82;101885.13;4828289;29;20007;-84
2021/07/09 01:42:55;;;;;;;8.93;4.00;;;;;;;16.73;83.07;101951.09;4829722;29;20045;-84
2021/07/09 01:45:21;;;;;;;6.07;4.00;;;;;;;16.66;83.14;101939.41;4829116;29;20029;-85
2021/07/09 01:47:46;;;;;;;5.00;3.78;;;;;;;16.84;83.14;101974.94;4828490;29;20079;-83
2021/07/09 01:50:13;;;;;;;7.03;3.67;;;;;;;16.61;83.33;101950.06;4828854;29;20047;-84
2021/07/09 01:52:39;;;;;;;10.52;4.10;;;;;;;16.53;83.28;101936.72;4828646;29;20035;-83
2021/07/09 01:55:06;;;;;;;7.97;3.70;;;;;;;16.39;83.43;101904.13;4838203;29;20027;-84
2021/07/09 01:57:32;;;;;;;4.88;3.75;;;;;;;16.28;83.38;101883.03;4847291;29;20086;-83
2021/07/09 01:59:59;;;;;;;4.90;3.97;;;;;;;16.88;83.64;101992.50;4838485;29;20031;-84
2021/07/09 02:02:26;;;;;;;6.57;3.60;;;;;;;17.09;83.75;102015.06;4829563;29;20011;-84
2021/07/09 02:04:55;;;;;;;7.50;3.70;;;;;;;16.52;83.69;101940.47;4829774;29;20043;-85
2021/07/09 02:07:23;;;;;;;6.20;3.40;;;;;;;16.25;83.80;101886.16;4829802;29;20031;-84
2021/07/09 02:09:50;;;;;;;6.05;3.40;;;;;;;17.27;84.18;102030.69;4833093;29;20058;-83
2021/07/09 02:12:19;;;;;;;5.00;3.53;;;;;;;17.26;84.14;102038.03;4847920;29;20026;-83
2021/07/09 02:14:45;;;;;;;5.50;3.70;;;;;;;16.30;83.99;101877.41;4843753;29;20011;-84
2021/07/09 02:17:15;;;;;;;6.13;3.78;;;;;;;16.24;84.23;101870.91;4829476;29;20487;-83
2021/07/09 02:19:41;;;;;;;6.50;3.90;;;;;;;16.81;84.23;101969.94;4829551;29;20048;-85
2021/07/09 02:22:10;;;;;;;4.47;3.60;;;;;;;16.51;84.38;101922.50;4829608;29;20047;-84
2021/07/09 02:24:37;;;;;;;7.60;3.78;;;;;;;16.39;84.49;101906.00;4894429;24;20055;-83
2021/07/09 02:27:04;;;;;;;5.10;3.53;;;;;;;16.37;84.67;101910.81;4828903;29;20035;-82
2021/07/09 02:29:32;;;;;;;7.03;3.53;;;;;;;16.03;84.63;101871.16;4832507;29;20041;-82
2021/07/09 02:31:59;;;;;;;5.38;3.67;;;;;;;16.21;84.82;101902.03;4833348;29;20011;-83
2021/07/09 02:34:26;;;;;;;5.18;3.60;;;;;;;16.05;84.95;101875.31;4832691;29;20038;-83
2021/07/09 02:36:52;;;;;;;5.78;3.67;;;;;;;16.12;84.80;101891.59;4832669;29;20033;-83
2021/07/09 02:39:17;;;;;;;6.70;3.45;;;;;;;16.44;84.92;101934.19;4832628;29;20031;-82
2021/07/09 02:41:43;;;;;;;4.68;3.15;;;;;;;16.45;84.98;101921.44;4847271;29;20045;-84
2021/07/09 02:44:09;;;;;;;5.78;3.88;;;;;;;16.36;85.00;101907.28;5128710;24;20048;-81
2021/07/09 02:46:37;;;;;;;7.78;3.15;;;;;;;16.09;85.03;101862.16;4849266;29;20050;-82
2021/07/09 02:49:03;;;;;;;6.10;3.20;;;;;;;17.17;85.06;102014.00;4848684;29;20022;-82
2021/07/09 02:51:29;;;;;;;4.20;3.13;;;;;;;16.60;84.61;101918.53;4847770;29;20022;-81
2021/07/09 02:53:55;;;;;;;5.70;3.20;;;;;;;16.51;84.89;101900.75;4849420;29;20063;-81
2021/07/09 02:56:21;;;;;;;6.20;3.38;;;;;;;16.37;84.63;101864.63;4849481;29;20038;-82
2021/07/09 02:58:47;;;;;;;4.45;3.20;;;;;;;17.00;84.43;101957.34;4849296;29;20038;-81
2021/07/09 03:01:12;;;;;;;6.97;3.10;;;;;;;16.70;84.46;101916.19;4848905;29;20052;-82
2021/07/09 03:03:38;;;;;;;6.18;2.80;;;;;;;17.37;84.35;102023.75;4848799;29;20026;-81
2021/07/09 03:06:04;;;;;;;5.15;3.00;;;;;;;16.58;84.36;101891.53;4847458;29;20014;-82
2021/07/09 03:08:30;;;;;;;6.40;2.85;;;;;;;16.62;83.94;101897.38;4848372;29;20102;-81
2021/07/09 03:10:56;;;;;;;5.78;2.60;;;;;;;16.45;83.77;101859.78;4847861;29;20030;-81
2021/07/09 03:13:22;;;;;;;5.40;2.90;;;;;;;17.50;83.70;102011.16;4849142;29;20045;-81
2021/07/09 03:15:48;;;;;;;4.40;3.00;;;;;;;16.76;82.78;101865.63;4849877;29;20018;-82
2021/07/09 03:18:14;;;;;;;5.65;3.10;;;;;;;17.33;82.01;101902.81;4849377;29;20026;-81
2021/07/09 03:20:40;;;;;;;5.15;2.80;;;;;;;16.99;81.42;101860.50;4849774;29;20173;-81
2021/07/09 03:23:06;;;;;;;7.70;2.85;;;;;;;17.03;82.15;101880.78;4848407;29;20026;-82
2021/07/09 03:25:32;;;;;;;4.07;2.70;;;;;;;16.68;82.74;101840.28;4838608;29;20055;-82
2021/07/09 03:27:58;;;;;;;3.92;2.95;;;;;;;17.69;82.94;102009.41;4844404;29;20034;-82
2021/07/09 03:30:23;;;;;;;4.97;3.15;;;;;;;16.93;83.10;101885.00;4829406;29;20026;-82
2021/07/09 03:32:50;;;;;;;6.22;2.90;;;;;;;17.44;82.93;101952.97;4844599;29;20041;-82
2021/07/09 03:35:16;;;;;;;4.72;2.70;;;;;;;17.23;81.56;101834.44;4843542;29;20042;-81
2021/07/09 03:37:42;;;;;;;3.70;2.80;;;;;;;17.83;79.54;101859.38;4847951;29;20037;-82
2021/07/09 03:40:09;;;;;;;5.47;2.88;;;;;;;18.25;79.45;101922.31;4847523;29;20037;-82
2021/07/09 03:42:36;;;;;;;5.07;2.78;;;;;;;18.21;78.65;101876.66;4847160;29;20030;-81
2021/07/09 03:45:03;;;;;;;5.10;2.50;;;;;;;19.45;77.45;102003.72;4845794;29;20046;-81
2021/07/09 03:47:28;;;;;;;4.30;2.63;;;;;;;18.90;75.59;101834.63;4842525;29;20078;-82
2021/07/09 03:49:57;;;;;;;4.95;2.45;;;;;;;19.80;73.50;101912.13;4846007;29;20038;-81
2021/07/09 03:52:26;;;;;;;6.88;2.30;;;;;;;20.62;72.16;101955.97;4846067;29;20089;-82
2021/07/09 03:54:52;;;;;;;5.72;2.50;;;;;;;20.68;70.42;101870.25;4844709;29;20058;-82
2021/07/09 03:57:18;;;;;;;4.32;2.20;;;;;;;21.53;68.76;101928.91;4847402;29;20026;-82
2021/07/09 03:59:44;;;;;;;3.88;2.30;;;;;;;21.48;67.31;101847.47;4847528;29;20054;-83
2021/07/09 04:02:09;;;;;;;5.43;2.25;;;;;;;21.98;66.14;101876.81;4848160;29;20026;-82
2021/07/09 04:04:35;;;;;;;2.72;2.20;;;;;;;22.09;64.84;101850.44;4847778;29;20017;-82
2021/07/09 04:07:01;;;;;;;5.88;1.95;;;;;;;22.76;65.84;102005.88;4847595;29;20515;-81
2021/07/09 04:09:27;;;;;;;2.83;2.05;;;;;;;21.45;68.26;101945.72;4845456;29;20038;-82
2021/07/09 04:11:53;;;;;;;4.45;2.20;;;;;;;21.27;70.28;102010.50;4847796;29;20046;-81
2021/07/09 04:14:19;;;;;;;5.40;2.28;;;;;;;20.91;71.04;101997.94;4846800;29;20023;-81
2021/07/09 04:16:46;;;;;;;5.40;2.38;;;;;;;20.57;69.78;101871.94;4847410;29;20006;-82
2021/07/09 04:19:13;;;;;;;3.65;2.10;;;;;;;22.86;65.72;102003.28;4846502;29;20038;-82
2021/07/09 04:21:42;;;;;;;3.67;2.00;;;;;;;23.09;62.94;101894.34;4847447;29;20010;-82
2021/07/09 04:24:07;;;;;;;5.15;2.17;;;;;;;24.54;60.85;102003.56;4847408;29;20027;-82
2021/07/09 04:26:34;;;;;;;3.47;2.00;;;;;;;25.08;59.28;102006.91;4846794;29;20124;-81
2021/07/09 04:29:01;;;;;;;3.33;2.20;;;;;;;24.68;58.37;101911.19;4845899;29;20095;-81
2021/07/09 04:31:27;;;;;;;5.70;2.13;;;;;;;24.63;57.54;101861.59;4845821;29;20104;-83
2021/07/09 04:33:56;;;;;;;3.28;1.90;;;;;;;25.46;56.74;101935.19;4845866;29;20026;-82
2021/07/09 04:36:22;;;;;;;5.18;2.08;;;;;;;25.46;56.53;101899.34;4845684;29;20030;-81
2021/07/09 04:38:48;;;;;;;2.55;1.90;;;;;;;25.23;55.81;101860.22;4846818;29;20057;-82
2021/07/09 04:41:13;;;;;;;4.68;2.17;;;;;;;25.72;55.09;101908.50;4844681;29;20102;-82
2021/07/09 04:43:39;;;;;;;3.85;1.70;;;;;;;26.09;53.98;101924.81;4844539;29;20434;-82
2021/07/09 04:46:06;;;;;;;10.55;1.90;;;;;;;26.04;53.09;101852.28;4843084;29;20091;-81
2021/07/09 04:48:32;;;;;;;6.47;1.70;;;;;;;26.32;52.54;101903.25;4844168;29;20038;-81
2021/07/09 04:51:01;;;;;;;6.30;1.90;;;;;;;26.04;52.12;101839.31;4840995;29;20035;-82
2021/07/09 04:53:27;;;;;;;7.00;1.88;;;;;;;26.56;51.92;101898.03;4841958;29;20391;-81
2021/07/09 04:55:53;;;;;;;7.68;1.95;;;;;;;25.89;52.07;101844.84;4842547;29;20026;-82
2021/07/09 04:58:19;;;;;;;11.35;1.98;;;;;;;25.59;53.25;101893.31;4843034;29;20010;-82
2021/07/09 05:00:44;;;;;;;9.32;2.10;;;;;;;25.71;53.13;101929.72;4840277;29;20031;-82
2021/07/09 05:03:10;;;;;;;7.53;2.10;;;;;;;25.55;54.36;102006.03;4839913;29;20042;-82
2021/07/09 05:05:36;;;;;;;9.10;1.90;;;;;;;25.57;54.53;101993.94;4842652;29;20041;-82
2021/07/09 05:08:02;;;;;;;8.75;2.25;;;;;;;24.69;54.02;101811.00;4843840;29;20026;-82
2021/07/09 05:10:28;;;;;;;9.15;2.13;;;;;;;25.56;53.42;101891.09;4842648;29;20476;-83
2021/07/09 05:12:54;;;;;;;6.55;1.80;;;;;;;26.33;52.47;101996.00;4845112;29;20086;-83
2021/07/09 05:15:19;;;;;;;8.43;1.80;;;;;;;25.51;51.97;101858.88;4843134;29;20034;-83
2021/07/09 05:17:45;;;;;;;7.72;1.73;;;;;;;26.46;52.43;101985.22;4840748;29;20109;-83
2021/07/09 05:20:12;;;;;;;10.68;1.85;;;;;;;26.36;52.25;101978.91;4843748;29;20049;-84
2021/07/09 05:22:38;;;;;;;6.10;1.98;;;;;;;25.12;52.47;101805.38;4842551;29;20030;-84
2021/07/09 05:25:04;;;;;;;6.57;1.60;;;;;;;25.38;52.33;101848.38;4843707;29;20089;-85
2021/07/09 05:27:31;;;;;;;4.22;1.67;;;;;;;25.32;52.18;101835.69;4842785;29;20007;-83
2021/07/09 05:29:57;;;;;;;4.60;1.50;;;;;;;26.33;51.79;101979.44;4842961;29;20035;-84
2021/07/09 05:32:25;;;;;;;5.63;1.60;;;;;;;26.49;51.21;101978.34;4843746;29;20035;-84
2021/07/09 05:34:52;;;;;;;4.32;1.50;;;;;;;25.97;50.94;101927.84;4843254;29;20085;-81
2021/07/09 05:37:19;;;;;;;5.65;1.58;;;;;;;25.60;50.61;101861.09;4843669;29;20050;-83
2021/07/09 05:39:45;;;;;;;4.28;1.20;;;;;;;26.45;50.75;101994.59;4844848;29;20126;-82
2021/07/09 05:42:11;;;;;;;4.75;1.30;;;;;;;25.78;50.37;101883.41;4842502;29;20065;-84
2021/07/09 05:44:37;;;;;;;4.18;1.23;;;;;;;25.82;49.43;101880.13;4840303;29;20050;-81
2021/07/09 05:47:03;;;;;;;3.78;1.25;;;;;;;26.67;49.58;101985.22;4837047;29;20030;-80
2021/07/09 05:49:28;;;;;;;4.32;1.00;;;;;;;25.88;49.17;101879.88;4842052;29;20030;-84
2021/07/09 05:51:54;;;;;;;4.15;1.30;;;;;;;25.83;49.49;101862.47;4842579;29;20055;-82
2021/07/09 05:54:20;;;;;;;3.28;1.30;;;;;;;26.64;48.92;101981.06;4842892;29;20063;-85
2021/07/09 05:56:46;;;;;;;3.45;1.27;;;;;;;25.67;49.26;101867.97;4844858;29;20034;-82
2021/07/09 05:59:14;;;;;;;2.85;1.27;;;;;;;25.80;49.06;101885.09;4848719;29;20487;-83
2021/07/09 06:01:40;;;;;;;4.28;1.30;;;;;;;25.17;49.32;101814.47;4837564;29;20030;-81
2021/07/09 06:04:05;;;;;;;5.18;1.45;;;;;;;25.38;50.16;101899.91;4844925;29;20372;-80
2021/07/09 06:06:31;;;;;;;3.20;1.65;;;;;;;25.20;52.35;101972.84;4843618;29;20030;-82
2021/07/09 06:08:56;;;;;;;4.38;1.50;;;;;;;24.36;53.67;101886.47;4843756;29;20037;-81
2021/07/09 06:11:22;;;;;;;3.10;1.48;;;;;;;23.66;54.06;101817.75;4844325;29;20038;-82
2021/07/09 06:13:48;;;;;;;5.95;1.60;;;;;;;24.66;53.47;101951.88;4844132;29;20041;-82
2021/07/09 06:16:16;;;;;;;4.93;1.50;;;;;;;23.76;53.67;101838.19;4844232;29;20030;-80
2021/07/09 06:18:42;;;;;;;2.45;1.40;;;;;;;24.22;53.02;101899.03;4843346;29;20022;-82
2021/07/09 06:21:08;;;;;;;3.80;1.50;;;;;;;24.58;52.85;101964.22;4846010;29;20533;-83
2021/07/09 06:23:33;;;;;;;3.20;1.50;;;;;;;24.36;52.74;101930.47;4844804;29;20054;-83
2021/07/09 06:25:59;;;;;;;5.25;1.67;;;;;;;23.57;56.00;101821.22;4846750;29;20021;-82
2021/07/09 06:28:25;;;;;;;4.95;1.88;;;;;;;23.26;58.08;101833.84;4846727;29;20065;-82
2021/07/09 06:30:53;;;;;;;3.83;1.90;;;;;;;22.98;58.89;101835.75;4845354;29;20023;-81
2021/07/09 06:33:19;;;;;;;4.93;1.77;;;;;;;23.73;58.49;101968.69;4846565;29;20044;-82
2021/07/09 06:35:45;;;;;;;3.20;1.80;;;;;;;23.38;58.29;101895.78;4846373;29;20101;-82
2021/07/09 06:38:11;;;;;;;4.40;1.70;;;;;;;23.05;58.53;101843.81;4845967;29;20030;-81
2021/07/09 06:40:37;;;;;;;3.42;2.00;;;;;;;23.40;58.74;101906.50;4847357;29;20019;-83
2021/07/09 06:43:03;;;;;;;4.22;1.80;;;;;;;23.07;59.74;101911.06;4846724;29;20025;-80
2021/07/09 06:45:29;;;;;;;2.95;1.80;;;;;;;23.14;60.54;101974.84;4843127;29;20054;-81
2021/07/09 06:47:54;;;;;;;3.08;2.00;;;;;;;23.03;61.24;101978.56;4815436;29;20058;-81
2021/07/09 06:50:20;;;;;;;5.13;1.60;;;;;;;22.84;61.73;101977.97;4846350;29;20523;-81
2021/07/09 06:52:46;;;;;;;6.80;2.00;;;;;;;22.86;62.47;101978.56;4848383;29;20141;-81
2021/07/09 06:55:12;;;;;;;7.35;2.13;;;;;;;22.82;61.46;101985.66;4846797;29;20018;-81
2021/07/09 06:57:38;;;;;;;2.88;1.85;;;;;;;22.79;61.35;101966.94;4847496;29;20030;-81
2021/07/09 07:00:06;;;;;;;3.78;1.80;;;;;;;22.90;60.76;101962.41;4853255;29;20026;-81
2021/07/09 07:02:32;;;;;;;5.68;1.80;;;;;;;23.07;60.17;101973.38;4847089;29;20493;-81
2021/07/09 07:04:59;;;;;;;4.45;1.75;;;;;;;23.08;59.18;101975.88;4841605;29;20098;-82
2021/07/09 07:07:25;;;;;;;6.22;1.92;;;;;;;22.99;59.10;101966.44;4847053;29;20018;-83
2021/07/09 07:09:50;;;;;;;3.85;1.70;;;;;;;23.00;59.22;101987.28;4845805;29;20038;-81
2021/07/09 07:12:16;;;;;;;3.55;1.92;;;;;;;22.96;58.97;101988.91;4845820;29;20434;-81
2021/07/09 07:14:41;;;;;;;3.78;2.00;;;;;;;22.84;60.28;101979.91;4845995;29;20110;-81
2021/07/09 07:17:08;;;;;;;4.82;1.90;;;;;;;22.71;60.06;101981.94;4846147;29;20026;-80
2021/07/09 07:19:33;;;;;;;4.72;1.90;;;;;;;22.59;60.32;101988.59;4840338;29;20025;-79
2021/07/09 07:22:01;;;;;;;4.75;1.80;;;;;;;22.57;60.87;101969.63;4832630;29;20034;-80
2021/07/09 07:24:27;;;;;;;2.78;1.70;;;;;;;22.69;60.52;101984.09;4836826;29;20034;-80
2021/07/09 07:26:53;;;;;;;4.15;1.95;;;;;;;22.69;60.58;101983.25;4844752;29;20035;-81
2021/07/09 07:29:18;;;;;;;5.40;1.85;;;;;;;22.72;60.64;101993.75;4845883;29;20045;-80
2021/07/09 07:31:44;;;;;;;6.07;2.10;;;;;;;22.62;60.98;101988.94;4843720;29;20090;-79
2021/07/09 07:34:09;;;;;;;4.90;1.70;;;;;;;22.60;61.86;101980.09;4831017;29;20118;-82
2021/07/09 07:36:34;;;;;;;3.72;1.63;;;;;;;22.63;62.53;101987.84;4844038;29;20048;-82
2021/07/09 07:39:00;;;;;;;5.32;1.88;;;;;;;22.64;62.36;101991.41;4846470;29;20065;-81
2021/07/09 07:41:25;;;;;;;3.95;2.05;;;;;;;22.63;62.38;101989.75;4845348;29;20102;-82
2021/07/09 07:43:50;;;;;;;6.50;1.70;;;;;;;22.66;62.18;101992.00;4838903;29;20023;-81
2021/07/09 07:46:17;;;;;;;4.28;1.80;;;;;;;22.77;62.50;101993.81;4848442;29;20041;-82
2021/07/09 07:48:43;;;;;;;6.65;2.00;;;;;;;22.87;62.03;101982.13;4847012;29;20026;-82
2021/07/09 07:51:08;;;;;;;2.97;1.77;;;;;;;22.87;61.90;101985.72;4847339;29;20034;-82
2021/07/09 07:53:34;;;;;;;4.47;1.70;;;;;;;22.83;61.89;101987.31;4848595;29;20121;-83
2021/07/09 07:56:04;;;;;;;3.17;1.80;;;;;;;22.74;61.56;101970.44;4848240;29;20041;-82
2021/07/09 07:58:30;;;;;;;5.07;1.70;;;;;;;22.96;61.83;101986.16;4848098;29;20071;-82
2021/07/09 08:00:56;;;;;;;4.18;1.77;;;;;;;22.77;63.35;101962.78;4846522;29;20030;-82
2021/07/09 08:03:22;;;;;;;2.95;1.73;;;;;;;22.68;61.96;101968.72;4847386;29;20014;-83
2021/07/09 08:05:47;;;;;;;4.03;1.92;;;;;;;22.78;63.05;101976.28;4848362;29;20030;-82
2021/07/09 08:08:13;;;;;;;3.92;1.70;;;;;;;22.78;62.85;101968.03;4832941;29;20035;-82
2021/07/09 08:10:38;;;;;;;3.10;2.05;;;;;;;22.75;62.50;101955.66;4847727;29;20094;-79
2021/07/09 08:13:04;;;;;;;3.13;1.90;;;;;;;22.63;64.40;101956.84;4848180;29;20030;-82
2021/07/09 08:15:29;;;;;;;4.03;1.77;;;;;;;22.45;64.31;101945.06;4848836;29;20027;-83
2021/07/09 08:17:55;;;;;;;5.50;2.10;;;;;;;22.25;64.80;101963.91;4817575;29;20025;-83
2021/07/09 08:20:20;;;;;;;4.05;1.70;;;;;;;22.23;64.36;101958.69;4847061;29;20038;-84
